createdAt,value
2022-11-29T00:01:04.572Z,99952.42
2022-11-29T00:03:32.946Z,99952.12
2022-11-29T00:06:08.209Z,99949.92
2022-11-29T00:08:36.462Z,99949.98
2022-11-29T00:11:08.323Z,99950.56
2022-11-29T00:13:35.779Z,99950.27
2022-11-29T00:16:08.566Z,99953.42
2022-11-29T00:18:36.118Z,99948.80
2022-11-29T00:21:07.467Z,99945.29
2022-11-29T00:23:35.547Z,99949.36
2022-11-29T00:26:04.968Z,99947.36
2022-11-29T00:28:33.010Z,99942.74
2022-11-29T00:31:02.019Z,99943.59
2022-11-29T00:33:29.460Z,99951.73
2022-11-29T00:36:01.319Z,99951.92
2022-11-29T00:38:28.879Z,99952.51
2022-11-29T00:40:56.439Z,99948.86
2022-11-29T00:43:24.305Z,99942.84
2022-11-29T00:45:52.327Z,99942.54
2022-11-29T00:48:19.832Z,99945.39
2022-11-29T00:50:47.392Z,99948.47
2022-11-29T00:53:15.263Z,99943.95
2022-11-29T00:55:50.217Z,99939.45
2022-11-29T00:58:18.157Z,99939.85
2022-11-29T01:00:45.718Z,99936.98
2022-11-29T01:03:13.790Z,99930.77
2022-11-29T01:05:42.571Z,99930.13
2022-11-29T01:08:10.990Z,99933.59
2022-11-29T01:10:38.616Z,99929.89
2022-11-29T01:13:06.379Z,99928.60
2022-11-29T01:15:34.261Z,99926.11
2022-11-29T01:18:01.804Z,99923.42
2022-11-29T01:20:29.402Z,99923.56
2022-11-29T01:22:57.229Z,99923.83
2022-11-29T01:25:24.996Z,99923.64
2022-11-29T01:27:53.994Z,99915.39
2022-11-29T01:30:21.647Z,99910.67
2022-11-29T01:32:49.416Z,99906.42
2022-11-29T01:35:17.175Z,99903.30
2022-11-29T01:37:44.836Z,99902.80
2022-11-29T01:40:13.577Z,99903.91
2022-11-29T01:42:40.876Z,99902.58
2022-11-29T01:45:24.525Z,99899.73
2022-11-29T01:47:54.685Z,99901.31
2022-11-29T01:50:22.015Z,99902.11
2022-11-29T01:52:49.645Z,99900.88
2022-11-29T01:55:17.461Z,99900.74
2022-11-29T01:57:45.685Z,99902.52
2022-11-29T02:00:16.732Z,99894.37
2022-11-29T02:02:51.075Z,99895.53
2022-11-29T02:05:19.013Z,99896.02
2022-11-29T02:07:53.978Z,99901.04
2022-11-29T02:10:25.616Z,99903.33
2022-11-29T02:12:53.165Z,99899.06
2022-11-29T02:15:43.468Z,99895.74
2022-11-29T02:18:14.475Z,99896.87
2022-11-29T02:21:03.564Z,99896.42
2022-11-29T02:24:06.954Z,99896.27
2022-11-29T02:26:59.092Z,99895.71
2022-11-29T02:30:05.159Z,99888.19
2022-11-29T02:33:11.735Z,99893.40
2022-11-29T02:36:01.302Z,99892.82
2022-11-29T02:38:53.742Z,99889.43
2022-11-29T02:41:40.762Z,99889.55
2022-11-29T02:44:40.064Z,99888.50
2022-11-29T02:47:14.810Z,99888.70
2022-11-29T02:50:05.180Z,99886.25
2022-11-29T02:52:57.315Z,99889.78
2022-11-29T02:55:28.458Z,99887.36
2022-11-29T02:58:31.962Z,99886.67
2022-11-29T03:01:16.170Z,99886.89
2022-11-29T03:03:51.858Z,99883.23
2022-11-29T03:06:41.037Z,99886.17
2022-11-29T03:09:34.901Z,99884.73
2022-11-29T03:12:14.652Z,99886.30
2022-11-29T03:15:08.770Z,99887.33
2022-11-29T03:17:42.839Z,99885.73
2022-11-29T03:20:44.806Z,99885.42
2022-11-29T03:23:23.151Z,99888.05
2022-11-29T03:25:50.829Z,99887.73
2022-11-29T03:28:38.242Z,99889.53
2022-11-29T03:31:59.482Z,99890.14
2022-11-29T03:34:45.097Z,99890.92
2022-11-29T03:37:21.480Z,99891.81
2022-11-29T03:39:56.488Z,99890.35
2022-11-29T03:42:26.507Z,99887.19
2022-11-29T03:45:15.101Z,99887.64
2022-11-29T03:47:50.907Z,99890.51
2022-11-29T03:50:21.300Z,99891.36
2022-11-29T03:52:54.865Z,99891.38
2022-11-29T03:55:22.031Z,99891.05
2022-11-29T03:58:23.563Z,99893.21
2022-11-29T04:01:22.150Z,99892.53
2022-11-29T04:04:11.297Z,99891.05
2022-11-29T04:07:01.928Z,99891.11
2022-11-29T04:09:42.460Z,99891.33
2022-11-29T04:12:37.724Z,99890.48
2022-11-29T04:15:17.660Z,99892.81
2022-11-29T04:18:11.024Z,99895.63
2022-11-29T04:20:55.354Z,99897.06
2022-11-29T04:23:31.096Z,99895.77
2022-11-29T04:26:35.114Z,99894.48
2022-11-29T04:29:15.102Z,99900.52
2022-11-29T04:31:51.414Z,99899.98
2022-11-29T04:34:40.457Z,99903.83
2022-11-29T04:37:10.227Z,99898.30
2022-11-29T04:40:02.624Z,99904.77
2022-11-29T04:43:00.745Z,99902.67
2022-11-29T04:45:43.409Z,99902.77
2022-11-29T04:48:24.384Z,99909.66
2022-11-29T04:51:19.550Z,99909.90
2022-11-29T04:54:02.987Z,99914.94
2022-11-29T04:56:33.035Z,99914.64
2022-11-29T04:59:19.145Z,99916.43
2022-11-29T05:02:11.793Z,99916.39
2022-11-29T05:04:51.468Z,99915.16
2022-11-29T05:07:57.648Z,99916.08
2022-11-29T05:10:31.738Z,99919.23
2022-11-29T05:13:33.625Z,99915.79
2022-11-29T05:16:22.613Z,99921.66
2022-11-29T05:18:49.992Z,99922.58
2022-11-29T05:21:41.785Z,99922.51
2022-11-29T05:24:33.676Z,99926.69
2022-11-29T05:27:25.757Z,99923.71
2022-11-29T05:30:06.230Z,99925.33
2022-11-29T05:32:42.885Z,99924.40
2022-11-29T05:35:32.869Z,99926.05
2022-11-29T05:38:15.226Z,99930.69
2022-11-29T05:40:53.052Z,99932.90
2022-11-29T05:43:51.292Z,99934.82
2022-11-29T05:46:24.407Z,99934.93
2022-11-29T05:49:09.446Z,99939.47
2022-11-29T05:52:05.141Z,99940.36
2022-11-29T05:54:37.874Z,99944.52
2022-11-29T05:57:15.284Z,99946.14
2022-11-29T05:59:42.773Z,99946.63
2022-11-29T06:02:23.645Z,99948.42
2022-11-29T06:04:56.974Z,99950.15
2022-11-29T06:07:49.215Z,99950.70
2022-11-29T06:10:17.969Z,99950.95
2022-11-29T06:12:49.612Z,99952.23
2022-11-29T06:15:32.178Z,99957.92
2022-11-29T06:18:24.346Z,99959.00
2022-11-29T06:21:14.436Z,99958.96
2022-11-29T06:23:50.862Z,99966.56
2022-11-29T06:26:44.518Z,99963.95
2022-11-29T06:29:33.103Z,99966.23
2022-11-29T06:32:07.993Z,99966.05
2022-11-29T06:35:05.561Z,99963.22
2022-11-29T06:37:40.177Z,99963.91
2022-11-29T06:40:11.961Z,99966.73
2022-11-29T06:42:40.745Z,99968.42
2022-11-29T06:45:12.446Z,99970.49
2022-11-29T06:47:49.084Z,99969.66
2022-11-29T06:50:31.873Z,99968.89
2022-11-29T06:53:02.722Z,99967.50
2022-11-29T06:55:57.911Z,99971.93
2022-11-29T06:58:43.840Z,99973.85
2022-11-29T07:01:50.768Z,99980.27
2022-11-29T07:04:46.264Z,99976.38
2022-11-29T07:07:18.745Z,99978.42
2022-11-29T07:09:49.227Z,99974.89
2022-11-29T07:12:17.947Z,99978.65
2022-11-29T07:14:46.431Z,99978.75
2022-11-29T07:17:23.169Z,99986.67
2022-11-29T07:20:00.464Z,99984.98
2022-11-29T07:22:47.601Z,99989.98
2022-11-29T07:25:55.106Z,99987.33
2022-11-29T07:28:34.661Z,99989.98
2022-11-29T07:31:11.282Z,99990.18
2022-11-29T07:33:57.216Z,99990.23
2022-11-29T07:36:34.452Z,99987.19
2022-11-29T07:39:24.803Z,99989.98
2022-11-29T07:42:16.290Z,99990.36
2022-11-29T07:45:04.960Z,99989.80
2022-11-29T07:47:35.675Z,99992.19
2022-11-29T07:50:03.760Z,99989.73
2022-11-29T07:52:32.212Z,99989.75
2022-11-29T07:55:04.420Z,99989.23
2022-11-29T07:57:32.343Z,99989.55
2022-11-29T08:00:00.507Z,99988.06
2022-11-29T08:02:29.385Z,99986.92
2022-11-29T08:04:57.963Z,99988.18
2022-11-29T08:07:25.554Z,99986.16
2022-11-29T08:09:52.877Z,99988.40
2022-11-29T08:12:20.504Z,99988.36
2022-11-29T08:14:48.077Z,99990.66
2022-11-29T08:17:16.038Z,99986.31
2022-11-29T08:19:45.949Z,99988.41
2022-11-29T08:22:13.387Z,99988.18
2022-11-29T08:24:42.076Z,99980.40
2022-11-29T08:27:10.889Z,99983.59
2022-11-29T08:29:38.186Z,99982.41
2022-11-29T08:32:05.985Z,99982.27
2022-11-29T08:34:34.991Z,99983.35
2022-11-29T08:37:03.121Z,99982.23
2022-11-29T08:39:34.232Z,99984.25
2022-11-29T08:42:03.326Z,99979.10
2022-11-29T08:44:31.852Z,99983.52
2022-11-29T08:47:18.986Z,99985.64
2022-11-29T08:50:02.691Z,99987.01
2022-11-29T08:52:52.368Z,99986.23
2022-11-29T08:55:20.575Z,99985.17
2022-11-29T08:57:48.909Z,99980.96
2022-11-29T09:00:17.960Z,99974.58
2022-11-29T09:02:45.389Z,99971.65
2022-11-29T09:05:15.596Z,99972.55
2022-11-29T09:07:44.209Z,99972.98
2022-11-29T09:10:11.802Z,99972.27
2022-11-29T09:12:39.781Z,99970.63
2022-11-29T09:15:10.058Z,99969.62
2022-11-29T09:17:37.699Z,99968.70
2022-11-29T09:20:06.375Z,99967.91
2022-11-29T09:22:35.694Z,99966.15
2022-11-29T09:25:03.677Z,99967.46
2022-11-29T09:27:31.918Z,99969.67
2022-11-29T09:29:59.579Z,99972.33
2022-11-29T09:32:27.969Z,99973.03
2022-11-29T09:34:57.989Z,99971.29
2022-11-29T09:37:26.555Z,99970.78
2022-11-29T09:39:54.484Z,99969.06
2022-11-29T09:42:44.135Z,99970.69
2022-11-29T09:45:18.193Z,99965.48
2022-11-29T09:48:22.272Z,99967.41
2022-11-29T09:51:14.503Z,99967.04
2022-11-29T09:53:51.254Z,99966.52
2022-11-29T09:56:30.191Z,99966.64
2022-11-29T09:58:59.886Z,99966.02
2022-11-29T10:01:37.127Z,99968.74
2022-11-29T10:04:08.632Z,99965.17
2022-11-29T10:06:44.833Z,99963.59
2022-11-29T10:09:13.515Z,99961.36
2022-11-29T10:12:14.847Z,99958.23
2022-11-29T10:15:01.380Z,99959.55
2022-11-29T10:18:02.299Z,99958.25
2022-11-29T10:20:41.400Z,99957.64
2022-11-29T10:23:47.900Z,99954.88
2022-11-29T10:26:17.906Z,99959.16
2022-11-29T10:28:49.990Z,99954.18
2022-11-29T10:31:28.858Z,99950.80
2022-11-29T10:34:01.558Z,99951.66
2022-11-29T10:36:50.776Z,99953.30
2022-11-29T10:39:41.781Z,99954.56
2022-11-29T10:42:35.505Z,99957.87
2022-11-29T10:45:06.019Z,99956.95
2022-11-29T10:47:35.742Z,99956.55
2022-11-29T10:50:05.956Z,99956.44
2022-11-29T10:52:37.661Z,99956.05
2022-11-29T10:55:09.928Z,99957.67
2022-11-29T10:57:49.941Z,99957.10
2022-11-29T11:00:19.876Z,99951.41
2022-11-29T11:02:49.988Z,99952.42
2022-11-29T11:05:26.245Z,99951.31
2022-11-29T11:07:59.974Z,99951.30
2022-11-29T11:18:33.037Z,99955.61
2022-11-29T11:21:03.918Z,99955.30
2022-11-29T11:23:33.272Z,99954.09
2022-11-29T11:26:07.802Z,99957.34
2022-11-29T11:29:02.196Z,99956.29
2022-11-29T11:31:32.172Z,99955.52
2022-11-29T11:34:27.594Z,99956.66
2022-11-29T11:37:15.244Z,99957.50
2022-11-29T11:39:43.468Z,99956.79
2022-11-29T11:42:38.220Z,99951.44
2022-11-29T11:45:11.615Z,99952.68
2022-11-29T11:47:59.238Z,99953.64
2022-11-29T11:50:35.029Z,99951.85
2022-11-29T11:53:20.572Z,99955.02
2022-11-29T11:55:57.761Z,99955.95
2022-11-29T11:58:52.054Z,99951.20
2022-11-29T12:01:25.650Z,99947.17
2022-11-29T12:03:59.042Z,99949.77
2022-11-29T12:06:50.045Z,99950.27
2022-11-29T12:10:00.277Z,99956.56
2022-11-29T12:12:33.087Z,99959.96
2022-11-29T12:15:01.903Z,99961.05
2022-11-29T12:17:47.282Z,99955.69
2022-11-29T12:20:45.330Z,99952.33
2022-11-29T12:23:13.423Z,99954.27
2022-11-29T12:26:05.662Z,99962.35
2022-11-29T12:28:40.471Z,99957.65
2022-11-29T12:31:44.485Z,99955.73
2022-11-29T12:34:43.230Z,99953.08
2022-11-29T12:37:29.884Z,99953.09
2022-11-29T12:40:33.687Z,99954.31
2022-11-29T12:43:15.683Z,99956.73
2022-11-29T12:46:01.817Z,99960.61
2022-11-29T12:48:35.935Z,99960.42
2022-11-29T12:51:56.506Z,99966.55
2022-11-29T12:54:45.293Z,99967.42
2022-11-29T12:57:32.712Z,99971.12
2022-11-29T13:00:11.910Z,99965.41
2022-11-29T13:02:49.640Z,99964.48
2022-11-29T13:05:30.271Z,99963.89
2022-11-29T13:08:17.291Z,99970.70
2022-11-29T13:11:17.035Z,99973.61
2022-11-29T13:14:34.597Z,99970.77
2022-11-29T13:16:59.767Z,99973.06
2022-11-29T13:19:27.233Z,99981.42
2022-11-29T13:22:07.558Z,99980.47
2022-11-29T13:24:43.499Z,99982.29
2022-11-29T13:27:22.005Z,99986.30
2022-11-29T13:29:49.495Z,99985.58
2022-11-29T13:33:01.764Z,99985.86
2022-11-29T13:35:50.420Z,99986.27
2022-11-29T13:38:40.234Z,99994.35
2022-11-29T13:41:32.369Z,99989.86
2022-11-29T13:44:00.372Z,99992.55
2022-11-29T13:46:39.468Z,99989.52
2022-11-29T13:49:09.791Z,99991.30
2022-11-29T13:51:37.768Z,99993.66
2022-11-29T13:54:06.363Z,99991.29
2022-11-29T13:56:46.215Z,99993.56
2022-11-29T13:59:31.528Z,99991.22
2022-11-29T14:01:59.469Z,99996.61
2022-11-29T14:04:29.979Z,99996.98
2022-11-29T14:07:12.553Z,99998.88
2022-11-29T14:10:01.819Z,100003.58
2022-11-29T14:12:37.372Z,100002.42
2022-11-29T14:15:23.726Z,100008.27
2022-11-29T14:17:56.561Z,100005.55
2022-11-29T14:20:23.953Z,100005.48
2022-11-29T14:23:06.811Z,100006.96
2022-11-29T14:25:51.151Z,100010.41
2022-11-29T14:28:22.407Z,100009.79
2022-11-29T14:31:02.078Z,100013.08
2022-11-29T14:33:49.877Z,100013.15
2022-11-29T14:36:32.863Z,100010.94
2022-11-29T14:39:32.233Z,100011.52
2022-11-29T14:42:14.731Z,100016.61
2022-11-29T14:44:53.108Z,100013.97
2022-11-29T14:47:26.188Z,100015.34
2022-11-29T14:49:55.295Z,100017.89
2022-11-29T14:52:55.658Z,100017.90
2022-11-29T14:55:26.188Z,100015.27
2022-11-29T14:58:17.942Z,100016.09
2022-11-29T15:00:48.491Z,100018.99
2022-11-29T16:40:28.810Z,100053.70
2022-11-29T16:43:08.081Z,100054.78
2022-11-29T16:45:36.670Z,100058.20
2022-11-29T16:48:27.536Z,100056.28
2022-11-29T16:51:15.879Z,100061.73
2022-11-29T16:53:51.526Z,100063.16
2022-11-29T16:56:23.427Z,100062.23
2022-11-29T16:59:20.767Z,100060.00
2022-11-29T17:01:51.598Z,100057.67
2022-11-29T17:04:23.402Z,100057.59
2022-11-29T17:06:56.046Z,100056.84
2022-11-29T17:09:30.075Z,100056.27
2022-11-29T17:12:00.806Z,100055.08
2022-11-29T17:14:31.276Z,100057.08
2022-11-29T17:17:01.892Z,100055.23
2022-11-29T17:19:29.887Z,100057.52
2022-11-29T17:21:58.264Z,100064.94
2022-11-29T17:24:25.835Z,100065.69
2022-11-29T17:26:53.488Z,100063.91
2022-11-29T17:29:21.352Z,100063.56
2022-11-29T17:31:56.779Z,100062.66
2022-11-29T17:34:24.457Z,100059.61
2022-11-29T17:36:52.372Z,100054.91
2022-11-29T17:39:21.318Z,100053.70
2022-11-29T17:41:48.876Z,100054.50
2022-11-29T17:44:16.351Z,100050.42
2022-11-29T17:46:47.680Z,100053.39
2022-11-29T17:49:15.238Z,100055.13
2022-11-29T17:51:52.602Z,100053.96
2022-11-29T17:54:21.950Z,100051.59
2022-11-29T17:56:50.012Z,100053.72
2022-11-29T17:59:17.362Z,100057.05
2022-11-29T18:01:46.972Z,100055.97
2022-11-29T18:04:16.055Z,100057.09
2022-11-29T18:06:45.395Z,100056.84
2022-11-29T18:09:12.914Z,100055.53
2022-11-29T18:11:48.297Z,100055.84
2022-11-29T18:14:22.588Z,100056.84
2022-11-29T18:16:50.219Z,100058.86
2022-11-29T18:19:19.336Z,100057.48
2022-11-29T18:21:47.502Z,100063.14
2022-11-29T18:24:14.859Z,100059.19
2022-11-29T18:26:45.085Z,100055.76
2022-11-29T18:29:12.741Z,100057.57
2022-11-29T18:31:42.252Z,100056.98
2022-11-29T18:34:10.429Z,100057.01
2022-11-29T18:36:42.465Z,100057.01
2022-11-29T18:39:19.568Z,100060.38
2022-11-29T18:41:48.560Z,100062.36
2022-11-29T18:44:18.268Z,100064.85
2022-11-29T18:46:45.841Z,100068.98
2022-11-29T18:49:14.920Z,100068.73
2022-11-29T18:51:44.066Z,100066.45
2022-11-29T18:54:12.597Z,100067.05
2022-11-29T18:56:40.060Z,100068.45
2022-11-29T18:59:14.067Z,100070.21
2022-11-29T19:01:42.099Z,100068.42
2022-11-29T19:04:12.052Z,100072.27
2022-11-29T19:06:40.849Z,100069.39
2022-11-29T19:09:13.308Z,100073.69
2022-11-29T19:11:40.667Z,100077.80
2022-11-29T19:14:12.482Z,100077.15
2022-11-29T19:16:41.831Z,100078.06
2022-11-29T19:19:09.286Z,100076.67
2022-11-29T19:21:37.561Z,100075.05
2022-11-29T19:24:16.993Z,100074.89
2022-11-29T19:26:46.110Z,100074.73
2022-11-29T19:29:13.961Z,100080.13
2022-11-29T19:31:42.245Z,100078.77
2022-11-29T19:34:09.589Z,100082.43
2022-11-29T19:36:43.375Z,100088.65
2022-11-29T19:39:16.282Z,100089.67
2022-11-29T19:41:47.322Z,100087.96
2022-11-29T19:44:14.877Z,100088.14
2022-11-29T19:46:47.817Z,100089.43
2022-11-29T19:49:15.223Z,100092.17
2022-11-29T19:51:42.886Z,100092.16
2022-11-29T19:54:11.570Z,100092.58
2022-11-29T19:56:39.346Z,100092.60
2022-11-29T19:59:07.716Z,100091.31
2022-11-29T20:01:43.430Z,100087.90
2022-11-29T20:04:12.770Z,100088.43
2022-11-29T20:06:40.631Z,100085.95
2022-11-29T20:09:10.038Z,100087.55
2022-11-29T20:11:37.788Z,100089.22
2022-11-29T20:14:07.052Z,100090.44
2022-11-29T20:16:34.549Z,100092.40
2022-11-29T20:19:02.132Z,100088.70
2022-11-29T20:21:31.618Z,100089.09
2022-11-29T20:24:03.795Z,100088.20
2022-11-29T20:26:32.875Z,100084.98
2022-11-29T20:29:01.871Z,100084.95
2022-11-29T20:31:30.988Z,100086.05
2022-11-29T20:33:58.729Z,100082.17
2022-11-29T20:37:07.145Z,100082.73
2022-11-29T20:39:44.407Z,100081.26
2022-11-29T20:42:50.313Z,100077.64
2022-11-29T20:45:18.461Z,100084.56
2022-11-29T20:47:51.158Z,100088.49
2022-11-29T20:50:29.551Z,100089.25
2022-11-29T20:53:03.435Z,100088.70
2022-11-29T20:55:31.641Z,100089.18
2022-11-29T20:57:59.499Z,100088.59
2022-11-29T21:00:26.976Z,100084.50
2022-11-29T21:02:54.617Z,100080.71
2022-11-29T21:05:22.071Z,100078.96
2022-11-29T21:07:50.002Z,100082.95
2022-11-29T21:10:19.042Z,100083.64
2022-11-29T21:12:48.340Z,100085.45
2022-11-29T21:15:16.578Z,100079.71
2022-11-29T21:17:45.917Z,100086.70
2022-11-29T21:20:24.535Z,100086.48
2022-11-29T21:23:06.121Z,100087.10
2022-11-29T21:25:53.339Z,100089.91
2022-11-29T21:28:21.101Z,100089.88
2022-11-29T21:30:49.625Z,100088.20
2022-11-29T21:33:17.551Z,100083.11
2022-11-29T21:35:45.106Z,100079.05
2022-11-29T21:38:14.822Z,100078.27
2022-11-29T21:40:42.385Z,100076.14
2022-11-29T21:43:09.849Z,100078.83
2022-11-29T21:45:38.495Z,100077.11
2022-11-29T21:48:28.912Z,100073.12
2022-11-29T21:50:56.581Z,100071.84
2022-11-29T21:53:24.560Z,100068.63
2022-11-29T21:55:59.237Z,100066.77
2022-11-29T21:58:28.060Z,100071.80
2022-11-29T22:00:55.416Z,100071.77
2022-11-29T22:03:23.074Z,100074.86
2022-11-29T22:05:50.838Z,100077.11
2022-11-29T22:08:20.268Z,100074.50
2022-11-29T22:10:48.004Z,100078.10
2022-11-29T22:13:15.666Z,100078.73
2022-11-29T22:15:43.296Z,100085.48
2022-11-29T22:18:10.885Z,100084.33
2022-11-29T22:20:38.550Z,100081.11
2022-11-29T22:23:06.105Z,100082.95
2022-11-29T22:25:33.766Z,100082.88
2022-11-29T22:28:01.430Z,100080.73
2022-11-29T22:30:29.297Z,100080.05
2022-11-29T22:32:57.057Z,100078.13
2022-11-29T22:35:24.721Z,100077.88
2022-11-29T22:37:52.279Z,100075.32
2022-11-29T22:40:19.841Z,100071.41
2022-11-29T22:42:47.399Z,100068.58
2022-11-29T22:45:15.400Z,100067.52
2022-11-29T22:47:42.827Z,100065.08
2022-11-29T22:50:11.097Z,100066.80
2022-11-29T22:52:38.470Z,100063.88
2022-11-29T22:55:06.845Z,100066.62
2022-11-29T22:57:34.290Z,100065.36
2022-11-29T23:00:02.467Z,100062.39
2022-11-29T23:02:30.579Z,100060.24
2022-11-29T23:04:58.296Z,100061.59
2022-11-29T23:07:26.186Z,100065.86
2022-11-29T23:09:55.461Z,100064.09
2022-11-29T23:12:23.841Z,100059.77
2022-11-29T23:14:55.959Z,100063.09
2022-11-29T23:17:24.386Z,100064.36
2022-11-29T23:19:51.844Z,100059.13
2022-11-29T23:22:20.733Z,100057.95
2022-11-29T23:24:48.813Z,100060.45
2022-11-29T23:27:16.779Z,100065.73
2022-11-29T23:29:44.742Z,100063.15
2022-11-29T23:32:12.216Z,100064.14
2022-11-29T23:34:40.062Z,100060.92
2022-11-29T23:37:07.522Z,100058.48
2022-11-29T23:39:35.182Z,100059.50
2022-11-29T23:42:02.639Z,100060.89
2022-11-29T23:44:30.938Z,100062.63
2022-11-29T23:46:58.371Z,100059.93
2022-11-29T23:49:26.134Z,100057.81
2022-11-29T23:51:53.806Z,100062.84
2022-11-29T23:54:22.898Z,100063.02
2022-11-29T23:56:50.449Z,100062.79
2022-11-29T23:59:18.111Z,100057.16
